Time;durP1;ratioP1;P1;durP2;ratioP2;P2;SDS_P1;SDS_P2;PMS_P1;PMS_P2;Temp;Humidity;BMP_temperature;BMP_pressure;BME280_temperature;BME280_humidity;BME280_pressure;Samples;Min_cycle;Max_cycle;Signal;HPM_P1;HPM_P2
2021/05/12 05:18:41;;;;;;;22.30;9.48;;;10.30;99.90;;;;;;5051808;28;20455;-65
2021/05/12 05:24:10;;;;;;;17.38;7.45;;;10.90;99.90;;;;;;5039396;28;20040;-66
2021/05/12 05:26:55;;;;;;;19.52;6.32;;;11.00;99.90;;;;;;5035127;28;20033;-66
2021/05/12 05:29:20;;;;;;;17.40;6.20;;;11.00;99.90;;;;;;5053277;28;20025;-66
2021/05/12 05:34:30;;;;;;;19.48;5.10;;;11.20;99.90;;;;;;5043496;28;20058;-66
2021/05/12 05:37:14;;;;;;;19.27;6.18;;;11.30;99.90;;;;;;5044819;28;20021;-68
2021/05/12 05:39:40;;;;;;;21.77;5.45;;;11.40;99.90;;;;;;5046706;28;20033;-66
2021/05/12 05:45:11;;;;;;;13.95;3.78;;;11.40;99.90;;;;;;5044287;28;20040;-66
2021/05/12 05:47:56;;;;;;;21.23;4.03;;;11.50;99.90;;;;;;5035972;28;20036;-66
2021/05/12 05:50:59;;;;;;;19.13;3.97;;;11.50;99.90;;;;;;5038176;28;20017;-65
2021/05/12 05:53:25;;;;;;;17.45;3.67;;;11.70;99.90;;;;;;5043615;28;20018;-63
2021/05/12 05:55:50;;;;;;;24.38;4.55;;;11.70;99.90;;;;;;5042669;28;20009;-65
2021/05/12 05:58:54;;;;;;;16.67;3.05;;;11.80;99.90;;;;;;5043047;28;20021;-65
2021/05/12 06:01:57;;;;;;;13.23;3.60;;;11.80;99.90;;;;;;5029410;28;20037;-65
2021/05/12 06:11:26;;;;;;;22.67;3.67;;;12.30;99.90;;;;;;5039705;28;20037;-66
2021/05/12 06:13:51;;;;;;;21.27;3.72;;;12.50;99.90;;;;;;5043426;28;20025;-64
2021/05/12 06:16:18;;;;;;;26.38;3.28;;;12.60;99.90;;;;;;5044359;28;20117;-64
2021/05/12 06:18:45;;;;;;;17.33;3.75;;;12.70;99.90;;;;;;5035560;28;20492;-63
2021/05/12 06:21:48;;;;;;;14.10;2.83;;;12.80;99.90;;;;;;5031480;28;20029;-65
2021/05/12 06:24:13;;;;;;;;;;;12.70;99.90;;;;;;5026251;28;20041;-62
2021/05/12 06:32:47;;;;;;;;;;;12.90;99.90;;;;;;5023119;28;20131;-66
2021/05/12 06:35:31;;;;;;;16.23;3.20;;;13.20;99.90;;;;;;5027797;28;19916;-64
2021/05/12 06:37:56;;;;;;;19.60;2.78;;;13.40;99.90;;;;;;5021837;28;20284;-64
2021/05/12 06:40:41;;;;;;;15.55;2.90;;;13.70;99.90;;;;;;5019976;28;20038;-66
2021/05/12 06:43:06;;;;;;;19.05;2.83;;;13.50;99.90;;;;;;5028867;28;20121;-63
2021/05/12 06:45:32;;;;;;;16.00;3.40;;;13.40;99.90;;;;;;5023183;28;20116;-64
2021/05/12 06:50:46;;;;;;;20.08;2.78;;;13.40;99.90;;;;;;5026806;28;20064;-65
2021/05/12 06:53:31;;;;;;;15.65;3.20;;;13.30;99.90;;;;;;5028229;28;20021;-65
2021/05/12 06:59:18;;;;;;;21.05;4.47;;;13.50;99.90;;;;;;5021645;28;20104;-67
2021/05/12 07:01:43;;;;;;;17.98;3.33;;;13.60;99.90;;;;;;5028302;28;20091;-64
2021/05/12 07:04:09;;;;;;;22.15;4.03;;;13.70;99.90;;;;;;5023375;28;20026;-63
2021/05/12 07:06:36;;;;;;;18.27;3.25;;;13.80;99.90;;;;;;5025252;28;20496;-63
2021/05/12 07:09:20;;;;;;;20.17;3.97;;;13.90;99.90;;;;;;5028497;28;20104;-64
2021/05/12 07:12:23;;;;;;;21.30;3.65;;;14.20;99.90;;;;;;5024916;28;20373;-64
2021/05/12 07:15:08;;;;;;;18.63;3.47;;;14.30;99.90;;;;;;5025996;28;20043;-64
2021/05/12 07:17:34;;;;;;;16.05;3.72;;;14.40;99.90;;;;;;5020972;28;20495;-65
2021/05/12 07:22:43;;;;;;;13.82;5.70;;;14.20;99.90;;;;;;5029890;28;20264;-66
2021/05/12 07:25:10;;;;;;;13.95;4.78;;;14.30;99.90;;;;;;5031124;28;20033;-64
2021/05/12 07:27:36;;;;;;;17.45;4.82;;;14.30;99.90;;;;;;5028460;28;20033;-64
2021/05/12 07:30:02;;;;;;;10.85;5.00;;;14.40;99.90;;;;;;5020407;28;20465;-65
2021/05/12 07:32:48;;;;;;;14.80;4.65;;;14.60;99.90;;;;;;5036363;28;20074;-65
2021/05/12 07:35:14;;;;;;;15.90;3.67;;;14.50;99.90;;;;;;5023758;28;20029;-64
2021/05/12 07:37:59;;;;;;;20.15;3.45;;;14.10;99.90;;;;;;5028213;28;20091;-64
2021/05/12 07:40:25;;;;;;;10.25;2.45;;;14.10;99.90;;;;;;5030767;28;20305;-64
2021/05/12 07:43:11;;;;;;;9.05;3.08;;;14.30;99.90;;;;;;5029523;28;20029;-62
2021/05/12 07:45:57;;;;;;;7.68;3.05;;;14.30;99.90;;;;;;5026790;28;20507;-63
2021/05/12 07:48:22;;;;;;;12.68;2.85;;;14.30;99.90;;;;;;5009746;28;20111;-64
2021/05/12 07:50:48;;;;;;;13.60;3.30;;;14.30;99.90;;;;;;5029855;28;20029;-63
2021/05/12 07:53:32;;;;;;;22.23;3.60;;;14.70;99.90;;;;;;5018730;28;20390;-65
2021/05/12 08:02:04;;;;;;;14.38;3.50;;;15.20;99.90;;;;;;5034359;28;20125;-66
2021/05/12 08:04:34;;;;;;;16.02;3.75;;;15.10;99.90;;;;;;5030868;28;20025;-65
2021/05/12 08:09:44;;;;;;;15.88;4.05;;;14.90;99.90;;;;;;5023719;28;20029;-65
2021/05/12 08:12:28;;;;;;;10.32;3.42;;;14.80;99.90;;;;;;5018740;28;20401;-65
2021/05/12 08:15:13;;;;;;;16.23;3.40;;;15.00;99.90;;;;;;5024740;28;20479;-64
2021/05/12 08:17:57;;;;;;;7.82;3.00;;;15.20;99.90;;;;;;5026368;28;20033;-66
2021/05/12 08:23:44;;;;;;;16.20;4.32;;;15.00;99.90;;;;;;5025055;28;20381;-65
2021/05/12 08:26:30;;;;;;;16.55;3.28;;;15.00;99.90;;;;;;5033116;28;20029;-67
2021/05/12 08:32:18;;;;;;;13.93;2.78;;;15.40;99.90;;;;;;5020124;28;20028;-68
2021/05/12 08:43:54;;;;;;;14.07;3.35;;;15.60;99.90;;;;;;5014521;28;20237;-67
2021/05/12 08:46:39;;;;;;;11.98;2.65;;;15.50;99.90;;;;;;5006099;28;20493;-65
2021/05/12 08:52:08;;;;;;;11.18;2.70;;;15.60;99.90;;;;;;5028356;28;20032;-66
2021/05/12 08:54:52;;;;;;;6.72;2.83;;;15.80;99.90;;;;;;5027217;28;20018;-63
2021/05/12 08:57:18;;;;;;;12.77;2.88;;;15.90;99.90;;;;;;5029189;28;20427;-67
2021/05/12 08:59:44;;;;;;;11.63;2.83;;;16.30;99.90;;;;;;5029619;28;20504;-65
2021/05/12 09:02:10;;;;;;;9.52;2.97;;;16.20;99.90;;;;;;5028075;28;20040;-65
2021/05/12 09:04:54;;;;;;;14.63;3.30;;;16.30;99.90;;;;;;5033036;28;20293;-65
2021/05/12 09:07:39;;;;;;;12.23;3.28;;;16.30;99.90;;;;;;5034449;28;20026;-66
2021/05/12 09:10:05;;;;;;;15.48;4.18;;;16.00;99.90;;;;;;5027463;28;20106;-65
2021/05/12 09:13:01;;;;;;;13.05;3.13;;;15.90;99.90;;;;;;5025814;28;20026;-65
2021/05/12 09:15:46;;;;;;;16.95;3.22;;;16.00;99.90;;;;;;5028878;28;20025;-66
2021/05/12 09:18:31;;;;;;;18.33;3.72;;;16.10;99.90;;;;;;5025870;28;20038;-65
2021/05/12 09:23:43;;;;;;;10.52;3.30;;;15.60;99.90;;;;;;5029508;28;20404;-65
2021/05/12 09:26:16;;;;;;;10.60;3.58;;;15.80;99.90;;;;;;5028847;28;20029;-65
2021/05/12 09:29:01;;;;;;;10.10;3.40;;;15.90;99.90;;;;;;5027810;28;20081;-64
2021/05/12 09:34:38;;;;;;;16.42;2.88;;;15.70;99.90;;;;;;5017006;28;20087;-66
2021/05/12 09:40:18;;;;;;;11.27;3.45;;;16.00;99.90;;;;;;5019223;28;20063;-66
2021/05/12 09:46:17;;;;;;;13.05;3.00;;;16.30;99.90;;;;;;5011635;28;20041;-66
2021/05/12 09:55:09;;;;;;;13.25;2.85;;;16.60;99.90;;;;;;5029464;28;20079;-66
2021/05/12 09:57:57;;;;;;;15.38;3.35;;;16.80;99.90;;;;;;5029539;28;20026;-66
2021/05/12 10:00:31;;;;;;;11.43;2.95;;;16.90;99.90;;;;;;5021074;28;20030;-66
2021/05/12 10:02:58;;;;;;;15.43;2.83;;;16.60;99.90;;;;;;5026128;28;20060;-67
2021/05/12 10:05:43;;;;;;;15.13;3.22;;;16.30;99.90;;;;;;5022071;28;20030;-65
2021/05/12 10:08:23;;;;;;;14.82;3.55;;;16.30;99.90;;;;;;5022474;28;20100;-66
2021/05/12 10:10:57;;;;;;;10.98;2.88;;;16.50;99.90;;;;;;5020147;28;20028;-67
2021/05/12 10:17:03;;;;;;;9.50;2.50;;;16.70;99.90;;;;;;5029987;28;20036;-63
2021/05/12 10:19:48;;;;;;;16.10;3.40;;;17.00;99.90;;;;;;5025144;28;20450;-66
2021/05/12 10:24:59;;;;;;;9.07;1.95;;;16.80;99.90;;;;;;5025454;28;20083;-66
2021/05/12 10:27:29;;;;;;;9.48;2.33;;;16.70;99.90;;;;;;5028456;28;20021;-67
2021/05/12 10:29:57;;;;;;;13.05;3.13;;;16.60;99.90;;;;;;5024509;28;20009;-67
2021/05/12 10:32:54;;;;;;;12.30;2.85;;;16.40;99.90;;;;;;5029817;28;20079;-65
2021/05/12 10:35:48;;;;;;;10.15;2.63;;;16.60;99.90;;;;;;5027111;28;20029;-65
2021/05/12 10:38:30;;;;;;;9.05;2.40;;;17.00;99.90;;;;;;5023609;28;20037;-66
2021/05/12 10:40:56;;;;;;;13.52;3.60;;;17.40;99.90;;;;;;5017127;28;20060;-66
2021/05/12 10:48:47;;;;;;;7.38;2.45;;;17.20;99.90;;;;;;5038667;28;20104;-64
2021/05/12 10:51:50;;;;;;;10.52;2.58;;;17.10;99.90;;;;;;5028927;28;20021;-67
2021/05/12 10:57:47;;;;;;;17.55;3.40;;;17.60;99.90;;;;;;5020610;28;20053;-66
2021/05/12 11:03:02;;;;;;;16.30;2.72;;;17.20;99.90;;;;;;5022921;28;20092;-66
2021/05/12 11:09:09;;;;;;;13.70;2.97;;;16.60;99.90;;;;;;5027657;28;20511;-65
2021/05/12 11:11:38;;;;;;;14.38;2.95;;;16.80;99.90;;;;;;5038194;28;20079;-67
2021/05/12 11:14:37;;;;;;;13.05;2.67;;;16.60;99.90;;;;;;5023477;28;20104;-66
2021/05/12 11:17:15;;;;;;;7.72;1.83;;;16.40;99.90;;;;;;5015605;28;20034;-67
2021/05/12 11:23:13;;;;;;;13.55;2.13;;;16.60;99.90;;;;;;5025653;28;20156;-65
2021/05/12 11:31:29;;;;;;;13.30;2.60;;;16.90;99.90;;;;;;5029021;28;20196;-66
2021/05/12 11:33:54;;;;;;;13.85;3.05;;;16.90;99.90;;;;;;5028586;28;20014;-67
2021/05/12 11:36:58;;;;;;;10.73;2.35;;;17.00;99.90;;;;;;5015388;28;20097;-66
2021/05/12 11:39:26;;;;;;;12.18;2.90;;;16.90;99.90;;;;;;5020826;28;20018;-65
2021/05/12 11:45:17;;;;;;;12.32;2.60;;;16.90;99.90;;;;;;5033519;28;20031;-65
2021/05/12 11:53:49;;;;;;;11.60;2.38;;;17.10;99.90;;;;;;5026479;28;20262;-65
2021/05/12 11:59:04;;;;;;;12.30;2.78;;;16.80;99.90;;;;;;5020807;28;20047;-67
2021/05/12 12:01:34;;;;;;;11.60;2.97;;;16.60;99.90;;;;;;5021209;28;20052;-65
2021/05/12 12:06:47;;;;;;;11.80;2.25;;;16.30;99.90;;;;;;5029319;28;20083;-71
2021/05/12 12:09:14;;;;;;;8.85;2.40;;;16.30;99.90;;;;;;5020240;28;20108;-67
2021/05/12 12:11:41;;;;;;;10.57;2.28;;;16.60;99.90;;;;;;5027952;28;20071;-65
2021/05/12 12:14:07;;;;;;;12.75;2.20;;;16.80;99.90;;;;;;5015699;28;20191;-66
2021/05/12 12:16:51;;;;;;;10.38;2.83;;;17.30;99.40;;;;;;5021970;28;20508;-65
2021/05/12 12:19:18;;;;;;;11.38;2.75;;;17.50;99.50;;;;;;5033123;28;20443;-68
2021/05/12 12:22:03;;;;;;;15.98;2.92;;;17.10;98.90;;;;;;5030859;28;20029;-71
2021/05/12 12:24:47;;;;;;;11.75;2.13;;;16.80;99.50;;;;;;5021814;28;20033;-68
2021/05/12 12:27:38;;;;;;;12.45;1.77;;;17.40;99.90;;;;;;5028394;28;20148;-68
2021/05/12 12:30:23;;;;;;;10.27;2.58;;;17.90;99.60;;;;;;5023895;28;20022;-67
2021/05/12 12:33:07;;;;;;;15.00;2.53;;;18.10;98.00;;;;;;5024043;28;20300;-65
2021/05/12 12:35:52;;;;;;;13.00;2.80;;;18.10;97.50;;;;;;5012913;28;20028;-66
2021/05/12 12:38:46;;;;;;;13.45;2.50;;;17.80;98.00;;;;;;5028899;28;20030;-67
2021/05/12 12:41:14;;;;;;;14.43;2.47;;;17.80;95.90;;;;;;5013520;28;20087;-66
2021/05/12 12:43:40;;;;;;;11.55;2.58;;;17.60;96.50;;;;;;5027575;28;20475;-70
2021/05/12 12:49:09;;;;;;;12.95;2.78;;;17.60;97.60;;;;;;5013918;28;20451;-67
2021/05/12 12:57:20;;;;;;;10.07;2.20;;;17.30;97.10;;;;;;5039717;28;20060;-71
2021/05/12 13:00:04;;;;;;;6.50;1.98;;;17.90;96.30;;;;;;5042833;28;20465;-65
2021/05/12 13:08:33;;;;;;;8.82;2.40;;;17.50;96.50;;;;;;5025799;28;20407;-66
2021/05/12 13:11:11;;;;;;;14.88;2.70;;;17.70;94.80;;;;;;5042766;28;20033;-67
2021/05/12 13:13:44;;;;;;;18.30;2.95;;;18.10;96.00;;;;;;5014069;28;20022;-65
2021/05/12 13:16:31;;;;;;;9.50;2.10;;;18.80;96.00;;;;;;5027144;28;20432;-70
2021/05/12 13:22:26;;;;;;;10.48;2.60;;;19.20;91.80;;;;;;5022724;28;20060;-67
2021/05/12 13:27:55;;;;;;;10.52;1.95;;;19.00;87.80;;;;;;5031587;28;20608;-68
2021/05/12 13:30:39;;;;;;;11.95;2.50;;;18.70;90.80;;;;;;5040600;28;20029;-67
2021/05/12 13:35:50;;;;;;;8.65;1.98;;;18.20;91.80;;;;;;5027282;28;20294;-68
2021/05/12 13:38:36;;;;;;;7.93;2.17;;;18.20;90.60;;;;;;5042735;28;20044;-69
2021/05/12 13:44:05;;;;;;;9.25;2.20;;;18.00;90.30;;;;;;5016282;28;20045;-66
2021/05/12 13:49:33;;;;;;;10.93;2.35;;;18.10;87.90;;;;;;5030928;28;20024;-65
2021/05/12 13:52:02;;;;;;;8.80;1.80;;;17.60;90.80;;;;;;5016688;28;20607;-65
2021/05/12 13:54:34;;;;;;;12.48;2.30;;;17.90;91.40;;;;;;5028096;28;20026;-69
2021/05/12 14:03:25;;;;;;;6.40;1.85;;;17.80;86.20;;;;;;5020764;28;20076;-65
2021/05/12 14:06:15;;;;;;;8.20;2.33;;;18.10;89.00;;;;;;5015145;28;20017;-64
2021/05/12 14:09:33;;;;;;;10.23;2.17;;;18.20;87.00;;;;;;5023857;28;20029;-67
2021/05/12 14:18:24;;;;;;;11.93;2.25;;;18.40;87.20;;;;;;5032539;28;20254;-64
2021/05/12 14:21:08;;;;;;;11.70;2.35;;;18.20;86.50;;;;;;5025566;28;20017;-65
2021/05/12 14:23:34;;;;;;;10.25;1.92;;;17.80;86.60;;;;;;5028683;28;20036;-65
2021/05/12 14:26:19;;;;;;;10.85;2.63;;;17.70;90.40;;;;;;5028963;28;20025;-65
2021/05/12 14:34:32;;;;;;;9.45;3.10;;;18.10;88.10;;;;;;5025660;28;20083;-66
2021/05/12 14:42:44;;;;;;;9.98;1.88;;;17.20;93.60;;;;;;5032063;28;20035;-66
2021/05/12 14:45:10;;;;;;;9.93;1.63;;;16.30;99.60;;;;;;5039154;28;20105;-65
2021/05/12 14:47:36;;;;;;;6.18;1.85;;;15.90;99.90;;;;;;5028786;28;20056;-67
2021/05/12 14:50:24;;;;;;;11.68;2.22;;;15.60;99.90;;;;;;5022421;28;20022;-66
2021/05/12 14:53:20;;;;;;;9.30;1.38;;;15.20;99.90;;;;;;5025774;28;20079;-66
2021/05/12 15:04:25;;;;;;;3.45;2.70;;;14.40;99.90;;;;;;5029557;28;20064;-66
2021/05/12 15:07:28;;;;;;;4.32;3.10;;;14.00;99.90;;;;;;5015557;28;20024;-64
2021/05/12 15:10:31;;;;;;;7.50;3.45;;;13.40;99.90;;;;;;5028627;28;20108;-66
2021/05/12 15:12:57;;;;;;;;;;;13.20;99.90;;;;;;5045547;28;20028;-65
2021/05/12 15:15:22;;;;;;;6.45;3.53;;;13.30;99.90;;;;;;5025060;28;19995;-66
2021/05/12 15:17:48;;;;;;;5.93;3.45;;;13.40;99.90;;;;;;5032922;28;20064;-66
2021/05/12 15:20:32;;;;;;;8.32;3.72;;;13.40;99.90;;;;;;5028770;28;20025;-65
2021/05/12 15:22:58;;;;;;;6.63;3.47;;;13.50;99.90;;;;;;5024816;28;20366;-65
2021/05/12 15:25:43;;;;;;;13.55;4.35;;;13.30;99.90;;;;;;5030689;28;20056;-64
2021/05/12 15:28:27;;;;;;;9.25;4.20;;;13.40;99.90;;;;;;5035707;28;20504;-65
2021/05/12 15:30:53;;;;;;;8.45;5.65;;;13.30;99.90;;;;;;5024031;28;20025;-66
2021/05/12 15:33:19;;;;;;;12.75;5.10;;;13.40;99.90;;;;;;5029364;28;20112;-65
2021/05/12 15:35:50;;;;;;;16.17;5.50;;;13.30;99.90;;;;;;5014993;28;20113;-65
2021/05/12 15:38:16;;;;;;;9.30;5.43;;;13.30;99.90;;;;;;5027876;28;20080;-64
2021/05/12 15:40:41;;;;;;;9.82;4.90;;;13.20;99.90;;;;;;5027961;28;20131;-65
2021/05/12 15:43:27;;;;;;;10.73;5.40;;;13.10;99.90;;;;;;5028825;28;20163;-67
2021/05/12 15:45:53;;;;;;;7.32;5.03;;;13.20;99.90;;;;;;5035236;28;20061;-66
2021/05/12 15:48:55;;;;;;;7.00;4.75;;;13.30;99.90;;;;;;5049815;28;20076;-68
2021/05/12 15:54:43;;;;;;;;;;;13.00;99.90;;;;;;5059608;28;20048;-68
2021/05/12 16:00:12;;;;;;;5.35;4.90;;;12.70;99.90;;;;;;5055408;28;20701;-65
2021/05/12 16:05:42;;;;;;;12.77;5.30;;;12.80;99.90;;;;;;5057901;28;20073;-66
2021/05/12 16:08:28;;;;;;;8.55;4.70;;;13.10;99.90;;;;;;5044589;28;20044;-67
2021/05/12 16:16:49;;;;;;;9.80;5.93;;;13.40;99.90;;;;;;5055714;28;20111;-67
2021/05/12 16:19:15;;;;;;;;;;;13.50;99.90;;;;;;5055086;28;20024;-66
2021/05/12 16:21:59;;;;;;;5.40;4.90;;;13.30;99.90;;;;;;5053705;28;19905;-65
2021/05/12 16:24:25;;;;;;;6.80;5.10;;;13.20;99.90;;;;;;5034283;28;20086;-66
2021/05/12 16:27:10;;;;;;;5.50;5.03;;;13.10;99.90;;;;;;5038322;28;20104;-65
2021/05/12 16:29:36;;;;;;;8.75;5.53;;;12.80;99.90;;;;;;5040065;28;20036;-68
2021/05/12 16:32:20;;;;;;;6.03;5.30;;;12.80;99.90;;;;;;5036659;28;20017;-68
2021/05/12 16:34:46;;;;;;;12.43;5.15;;;12.70;99.90;;;;;;5038031;28;20444;-65
2021/05/12 16:40:17;;;;;;;11.05;4.50;;;12.50;99.90;;;;;;5032708;28;20047;-67
2021/05/12 16:43:01;;;;;;;10.90;5.00;;;12.70;99.90;;;;;;5043787;28;20017;-65
2021/05/12 16:48:11;;;;;;;8.57;4.50;;;12.50;99.90;;;;;;5036619;28;20059;-66
2021/05/12 16:50:59;;;;;;;7.25;4.80;;;12.70;99.90;;;;;;5045490;28;20021;-67
2021/05/12 16:53:26;;;;;;;9.35;5.80;;;12.90;99.90;;;;;;5046360;28;20430;-66
2021/05/12 16:55:51;;;;;;;6.10;4.45;;;12.90;99.90;;;;;;5042417;28;20017;-66
2021/05/12 16:58:36;;;;;;;8.55;5.47;;;12.90;99.90;;;;;;5046644;28;20052;-68
2021/05/12 17:01:39;;;;;;;12.07;4.90;;;12.90;99.90;;;;;;5038773;28;20032;-67
2021/05/12 17:04:08;;;;;;;8.80;3.58;;;12.80;99.90;;;;;;5035920;28;20022;-65
2021/05/12 17:06:34;;;;;;;11.73;3.38;;;12.70;99.90;;;;;;5039852;28;20298;-68
2021/05/12 17:08:59;;;;;;;6.47;3.72;;;12.70;99.90;;;;;;5042815;28;20025;-65
2021/05/12 17:11:53;;;;;;;9.40;4.05;;;12.50;99.90;;;;;;5034528;28;20017;-66
2021/05/12 17:14:56;;;;;;;7.25;3.90;;;12.60;99.90;;;;;;5044908;28;20036;-66
2021/05/12 17:22:53;;;;;;;9.90;3.10;;;12.60;99.90;;;;;;5039801;28;20052;-65
2021/05/12 17:25:37;;;;;;;8.30;2.90;;;12.70;99.90;;;;;;5041614;28;20492;-64
2021/05/12 17:28:04;;;;;;;8.55;3.08;;;12.80;99.90;;;;;;5034156;28;20021;-65
2021/05/12 17:33:16;;;;;;;10.00;3.05;;;13.00;99.90;;;;;;5021012;28;20030;-66
2021/05/12 17:38:45;;;;;;;7.07;2.72;;;12.70;99.90;;;;;;5027421;28;20107;-65
2021/05/12 17:41:29;;;;;;;7.03;2.08;;;12.60;99.90;;;;;;5017629;28;20030;-66
2021/05/12 17:47:16;;;;;;;6.43;2.25;;;12.80;99.90;;;;;;5013251;28;20045;-66
2021/05/12 17:49:42;;;;;;;8.75;2.55;;;12.90;99.90;;;;;;5024009;28;20393;-66
2021/05/12 17:52:45;;;;;;;11.95;2.67;;;12.80;99.90;;;;;;5027778;28;20037;-66
2021/05/12 17:55:31;;;;;;;13.27;3.63;;;12.70;99.90;;;;;;5031704;28;20067;-64
2021/05/12 17:58:34;;;;;;;9.95;3.00;;;12.80;99.90;;;;;;5020874;28;20036;-62
2021/05/12 18:01:00;;;;;;;12.02;2.85;;;12.80;99.90;;;;;;5027115;28;20081;-64
2021/05/12 18:03:28;;;;;;;13.23;3.10;;;12.70;99.90;;;;;;5024215;28;20097;-65
2021/05/12 18:05:57;;;;;;;19.88;3.00;;;12.90;99.90;;;;;;5027210;28;20435;-65
2021/05/12 18:11:11;;;;;;;11.75;2.50;;;12.70;99.90;;;;;;5025199;28;20028;-64
2021/05/12 18:19:06;;;;;;;9.57;2.72;;;12.70;99.90;;;;;;5022793;28;20078;-65
2021/05/12 18:21:31;;;;;;;17.42;3.00;;;12.70;99.90;;;;;;5036505;28;20033;-64
2021/05/12 18:24:35;;;;;;;9.27;2.47;;;12.80;99.90;;;;;;5022513;28;20028;-65
2021/05/12 18:30:22;;;;;;;11.68;2.67;;;12.90;99.90;;;;;;5032075;28;20028;-64
2021/05/12 18:32:51;;;;;;;15.00;2.90;;;12.70;99.90;;;;;;5029802;28;20140;-66
2021/05/12 18:35:21;;;;;;;14.30;2.97;;;12.70;99.90;;;;;;5022336;28;20022;-67
2021/05/12 18:38:19;;;;;;;7.53;2.67;;;12.80;99.90;;;;;;5018910;28;20025;-66
2021/05/12 18:40:45;;;;;;;12.30;2.42;;;12.70;99.90;;;;;;5020139;28;20066;-65
2021/05/12 18:43:29;;;;;;;18.40;3.47;;;12.70;99.90;;;;;;5011432;28;20034;-65
2021/05/12 18:51:23;;;;;;;10.13;2.67;;;12.80;99.90;;;;;;5030861;28;20519;-66
2021/05/12 19:05:29;;;;;;;11.30;3.35;;;13.00;99.90;;;;;;5033536;28;20028;-66
2021/05/12 19:10:39;;;;;;;13.23;2.53;;;12.90;99.90;;;;;;5029503;28;20009;-66
2021/05/12 19:24:42;;;;;;;14.68;4.00;;;12.30;99.90;;;;;;5016433;28;20030;-66
2021/05/12 19:44:25;;;;;;;12.95;4.55;;;12.40;99.90;;;;;;5026999;28;20028;-67
2021/05/12 19:46:50;;;;;;;11.88;3.72;;;12.40;99.90;;;;;;5014795;28;20038;-68
2021/05/12 19:49:35;;;;;;;12.07;3.67;;;12.40;99.90;;;;;;5024690;28;20037;-66
2021/05/12 19:52:20;;;;;;;9.27;2.92;;;12.50;99.90;;;;;;5034239;28;20469;-67
2021/05/12 19:54:54;;;;;;;9.98;4.00;;;12.40;99.90;;;;;;5035571;28;20022;-66
2021/05/12 20:00:25;;;;;;;;;;;12.40;99.90;;;;;;5026796;28;20029;-64
2021/05/12 20:02:52;;;;;;;9.52;3.40;;;12.60;99.90;;;;;;5024214;28;19967;-66
2021/05/12 20:05:37;;;;;;;10.00;3.05;;;12.60;99.90;;;;;;5029828;28;20391;-65
2021/05/12 20:08:35;;;;;;;6.65;3.08;;;12.80;99.90;;;;;;5023953;28;20040;-67
2021/05/12 20:17:26;;;;;;;7.88;2.85;;;12.90;99.90;;;;;;5037016;28;20032;-67
2021/05/12 20:19:51;;;;;;;11.45;3.30;;;12.80;99.90;;;;;;5038041;28;20400;-65
2021/05/12 20:22:36;;;;;;;8.30;2.92;;;12.70;99.90;;;;;;5028246;28;20107;-65
2021/05/12 20:25:20;;;;;;;5.53;2.15;;;12.70;99.90;;;;;;5020154;28;20049;-67
2021/05/12 20:28:24;;;;;;;8.50;2.63;;;12.70;99.90;;;;;;5019855;28;20033;-66
2021/05/12 20:36:56;;;;;;;;;;;12.80;99.90;;;;;;5027467;28;20406;-65
2021/05/12 20:39:22;;;;;;;10.30;2.97;;;12.70;99.90;;;;;;5014631;28;19940;-65
2021/05/12 20:41:47;;;;;;;9.68;2.45;;;12.80;99.90;;;;;;5018291;28;20088;-66
2021/05/12 20:44:13;;;;;;;6.20;1.95;;;12.70;99.90;;;;;;5023966;28;20495;-66
2021/05/12 20:46:39;;;;;;;13.77;2.63;;;12.70;99.90;;;;;;5027844;28;20033;-64
2021/05/12 20:49:05;;;;;;;8.00;2.70;;;12.70;99.90;;;;;;5014290;28;20037;-66
2021/05/12 20:54:34;;;;;;;8.57;3.25;;;12.60;99.90;;;;;;5028741;28;20044;-65
2021/05/12 20:57:00;;;;;;;14.82;3.80;;;12.50;99.90;;;;;;5019367;28;20033;-65
2021/05/12 20:59:25;;;;;;;7.38;3.08;;;12.30;99.90;;;;;;5008607;28;20030;-66
2021/05/12 21:01:51;;;;;;;8.50;3.15;;;12.40;99.90;;;;;;5020178;28;20053;-64
2021/05/12 21:04:18;;;;;;;12.23;3.08;;;12.30;99.90;;;;;;5016151;28;20087;-65
2021/05/12 21:09:48;;;;;;;7.53;2.60;;;12.30;99.90;;;;;;5022348;28;20118;-65
2021/05/12 21:12:13;;;;;;;12.00;3.35;;;12.40;99.90;;;;;;5025120;28;20060;-67
2021/05/12 21:26:53;;;;;;;11.60;3.63;;;12.20;99.90;;;;;;5024529;28;20078;-65
2021/05/12 21:29:37;;;;;;;8.15;2.88;;;12.00;99.90;;;;;;5011334;28;20515;-67
2021/05/12 21:35:06;;;;;;;11.48;3.60;;;11.80;99.90;;;;;;5018997;28;20087;-65
2021/05/12 21:37:50;;;;;;;8.38;3.22;;;11.70;99.90;;;;;;5016503;28;20559;-66
2021/05/12 21:49:27;;;;;;;12.90;3.28;;;11.50;99.90;;;;;;5018751;28;20072;-66
2021/05/12 21:54:36;;;;;;;13.45;4.45;;;11.40;99.90;;;;;;5022245;28;20500;-66
2021/05/12 21:57:02;;;;;;;9.70;3.38;;;11.40;99.90;;;;;;5016830;28;20104;-65
2021/05/12 21:59:28;;;;;;;14.95;3.75;;;11.50;99.90;;;;;;5018425;28;20029;-66
2021/05/12 22:05:05;;;;;;;11.05;4.32;;;11.40;99.90;;;;;;5016915;28;20497;-64
2021/05/12 22:07:59;;;;;;;16.95;4.38;;;11.40;99.90;;;;;;5024753;28;20032;-66
2021/05/12 22:32:50;;;;;;;12.43;3.58;;;11.20;99.90;;;;;;5026374;28;20030;-67
2021/05/12 22:38:43;;;;;;;18.15;4.68;;;11.20;99.90;;;;;;5040390;28;20092;-66
2021/05/12 22:41:08;;;;;;;10.30;3.67;;;11.10;99.90;;;;;;5047977;28;20099;-66
2021/05/12 22:43:54;;;;;;;10.23;4.32;;;11.10;99.90;;;;;;5039943;28;20528;-67
2021/05/12 22:46:19;;;;;;;11.05;4.63;;;11.10;99.90;;;;;;5043484;28;20056;-69
2021/05/12 22:54:24;;;;;;;10.52;4.00;;;11.10;99.90;;;;;;5026480;28;20503;-69
2021/05/12 22:59:34;;;;;;;9.43;4.50;;;11.10;99.90;;;;;;5022228;28;20026;-67
2021/05/12 23:02:02;;;;;;;13.88;4.13;;;11.10;99.90;;;;;;5028104;28;20017;-67
2021/05/12 23:04:47;;;;;;;22.63;5.25;;;11.00;99.90;;;;;;5032541;28;20489;-67
2021/05/12 23:07:32;;;;;;;11.25;4.65;;;10.90;99.90;;;;;;5027742;28;20029;-70
2021/05/12 23:16:04;;;;;;;11.20;4.60;;;10.90;99.90;;;;;;5028296;28;20044;-68
2021/05/12 23:18:30;;;;;;;21.90;5.13;;;10.90;99.90;;;;;;5024678;28;20133;-66
2021/05/12 23:20:55;;;;;;;17.98;5.43;;;10.80;99.90;;;;;;5029304;28;20095;-67
2021/05/12 23:23:45;;;;;;;13.48;5.57;;;10.80;99.90;;;;;;5029534;28;20037;-65
2021/05/12 23:26:12;;;;;;;15.65;5.78;;;10.80;99.90;;;;;;5025960;28;20044;-66
2021/05/12 23:28:38;;;;;;;14.23;6.13;;;10.70;99.90;;;;;;5028465;28;20037;-67
2021/05/12 23:31:22;;;;;;;12.85;5.70;;;10.70;99.90;;;;;;5026229;28;20044;-66
2021/05/12 23:33:48;;;;;;;16.38;6.07;;;10.70;99.90;;;;;;5029123;28;20013;-66
2021/05/12 23:36:14;;;;;;;20.30;5.50;;;10.70;99.90;;;;;;5019275;28;20026;-67
2021/05/12 23:39:22;;;;;;;17.38;6.72;;;10.70;99.90;;;;;;5023557;28;20028;-64
2021/05/12 23:44:34;;;;;;;21.10;6.70;;;10.60;99.90;;;;;;5036626;28;20704;-67
2021/05/12 23:47:18;;;;;;;16.88;7.15;;;10.50;99.90;;;;;;5037228;28;20032;-67
2021/05/12 23:49:43;;;;;;;12.75;6.60;;;10.60;99.90;;;;;;5029013;28;20013;-65
2021/05/12 23:52:10;;;;;;;20.13;6.95;;;10.60;99.90;;;;;;5029870;28;20052;-66
2021/05/12 23:54:54;;;;;;;14.48;6.38;;;10.60;99.90;;;;;;5030331;28;20463;-67
2021/05/12 23:57:57;;;;;;;16.92;7.15;;;10.50;99.90;;;;;;5021276;28;20583;-66
